Time;durP1;ratioP1;P1;durP2;ratioP2;P2;SDS_P1;SDS_P2;PMS_P1;PMS_P2;Temp;Humidity;BMP_temperature;BMP_pressure;BME280_temperature;BME280_humidity;BME280_pressure;Samples;Min_cycle;Max_cycle;Signal;HPM_P1;HPM_P2
2024/03/10 00:00:34;;;;;;;3.03;1.70;;;;;;;;;;5054918;28;20025;-59
2024/03/10 00:03:04;;;;;;;2.15;1.30;;;;;;;;;;5055645;28;20037;-58
2024/03/10 00:05:30;;;;;;;3.88;1.55;;;;;;;;;;5055083;28;20028;-58
2024/03/10 00:07:56;;;;;;;2.55;1.83;;;;;;;;;;5055379;28;20045;-58
2024/03/10 00:10:22;;;;;;;2.75;1.70;;;;;;;;;;5054715;28;20017;-58
2024/03/10 00:12:48;;;;;;;2.75;2.22;;;;;;;;;;5054988;28;20049;-57
2024/03/10 00:15:19;;;;;;;3.17;2.05;;;;;;;;;;5054635;28;20083;-57
2024/03/10 00:17:45;;;;;;;4.05;2.15;;;;;;;;;;5055098;28;20036;-59
2024/03/10 00:20:11;;;;;;;3.47;2.30;;;;;;;;;;5054786;28;20174;-57
2024/03/10 00:22:38;;;;;;;3.28;2.33;;;;;;;;;;5054953;28;20032;-58
2024/03/10 00:25:05;;;;;;;4.00;2.58;;;;;;;;;;5054328;28;20029;-58
2024/03/10 00:27:31;;;;;;;7.13;2.45;;;;;;;;;;5054892;28;20340;-58
2024/03/10 00:29:56;;;;;;;4.65;2.47;;;;;;;;;;5054819;28;20044;-58
2024/03/10 00:32:24;;;;;;;3.78;2.40;;;;;;;;;;5053913;28;20025;-57
2024/03/10 00:34:50;;;;;;;5.43;2.80;;;;;;;;;;5054221;28;20087;-57
2024/03/10 00:37:16;;;;;;;4.22;2.75;;;;;;;;;;5054178;28;20025;-58
2024/03/10 00:39:42;;;;;;;5.90;3.22;;;;;;;;;;5054757;28;20072;-57
2024/03/10 00:42:08;;;;;;;3.65;2.30;;;;;;;;;;5054694;28;20443;-58
2024/03/10 00:44:34;;;;;;;5.20;2.78;;;;;;;;;;5053770;28;20029;-57
2024/03/10 00:47:00;;;;;;;4.00;2.97;;;;;;;;;;5054801;28;20049;-57
2024/03/10 00:49:26;;;;;;;5.40;3.25;;;;;;;;;;5053959;28;20483;-58
2024/03/10 00:51:52;;;;;;;4.95;3.13;;;;;;;;;;5054481;28;20074;-58
2024/03/10 00:54:18;;;;;;;4.88;2.88;;;;;;;;;;5053925;28;20024;-57
2024/03/10 00:56:44;;;;;;;4.97;3.15;;;;;;;;;;5053939;28;20053;-58
2024/03/10 00:59:10;;;;;;;4.18;3.20;;;;;;;;;;5054687;28;20025;-58
2024/03/10 01:01:39;;;;;;;4.38;3.13;;;;;;;;;;5053719;28;20033;-58
2024/03/10 01:04:05;;;;;;;4.32;3.03;;;;;;;;;;5054258;28;20029;-58
2024/03/10 01:06:31;;;;;;;3.67;2.80;;;;;;;;;;5053769;28;20104;-57
2024/03/10 01:08:58;;;;;;;5.80;3.30;;;;;;;;;;5054021;28;20041;-58
2024/03/10 01:11:23;;;;;;;4.60;2.70;;;;;;;;;;5053299;28;20040;-57
2024/03/10 01:13:50;;;;;;;4.38;3.20;;;;;;;;;;5053624;28;20025;-57
2024/03/10 01:16:16;;;;;;;4.82;3.67;;;;;;;;;;5053269;28;20479;-57
2024/03/10 01:18:42;;;;;;;5.25;3.30;;;;;;;;;;5054438;28;20025;-58
2024/03/10 01:21:09;;;;;;;4.15;3.15;;;;;;;;;;5053621;28;20532;-57
2024/03/10 01:23:35;;;;;;;5.28;3.42;;;;;;;;;;5053853;28;20029;-57
2024/03/10 01:26:01;;;;;;;4.03;2.92;;;;;;;;;;5053171;28;20493;-58
2024/03/10 01:28:27;;;;;;;4.03;3.30;;;;;;;;;;5053464;28;20033;-57
2024/03/10 01:30:53;;;;;;;5.95;2.60;;;;;;;;;;5053402;28;20036;-57
2024/03/10 01:33:19;;;;;;;4.43;3.13;;;;;;;;;;5053509;28;20036;-58
2024/03/10 01:35:45;;;;;;;5.78;2.75;;;;;;;;;;5053508;28;20395;-58
2024/03/10 01:38:18;;;;;;;3.72;2.47;;;;;;;;;;5053712;28;20111;-57
2024/03/10 01:40:44;;;;;;;3.08;1.90;;;;;;;;;;5053973;28;20029;-57
2024/03/10 01:43:10;;;;;;;5.20;3.47;;;;;;;;;;5053624;28;20116;-58
2024/03/10 01:45:36;;;;;;;4.13;2.58;;;;;;;;;;5053403;28;20466;-57
2024/03/10 01:48:02;;;;;;;4.95;2.80;;;;;;;;;;5053868;28;20443;-57
2024/03/10 01:50:29;;;;;;;4.88;3.13;;;;;;;;;;5053296;28;20028;-57
2024/03/10 01:52:55;;;;;;;3.70;2.67;;;;;;;;;;5053788;28;20040;-56
2024/03/10 01:55:21;;;;;;;4.82;2.70;;;;;;;;;;5053285;28;20044;-57
2024/03/10 01:57:48;;;;;;;3.55;2.70;;;;;;;;;;5052758;28;20048;-57
2024/03/10 02:00:14;;;;;;;3.95;2.80;;;;;;;;;;5053467;28;20029;-58
2024/03/10 02:02:43;;;;;;;3.85;2.45;;;;;;;;;;5053174;28;20036;-57
2024/03/10 02:05:09;;;;;;;4.38;2.40;;;;;;;;;;5052848;28;20477;-58
2024/03/10 02:07:35;;;;;;;3.17;2.35;;;;;;;;;;5053924;28;20147;-57
2024/03/10 02:10:03;;;;;;;3.33;1.92;;;;;;;;;;5053040;28;20029;-56
2024/03/10 02:12:28;;;;;;;2.42;1.75;;;;;;;;;;5053133;28;20025;-57
2024/03/10 02:14:58;;;;;;;2.88;1.65;;;;;;;;;;5053349;28;20052;-58
2024/03/10 02:17:25;;;;;;;5.38;1.98;;;;;;;;;;5053504;28;20061;-57
2024/03/10 02:19:52;;;;;;;2.70;1.77;;;;;;;;;;5053081;28;20498;-57
2024/03/10 02:22:18;;;;;;;4.53;2.38;;;;;;;;;;5053783;28;20371;-57
2024/03/10 02:24:47;;;;;;;2.92;2.33;;;;;;;;;;5053006;28;20448;-57
2024/03/10 02:27:16;;;;;;;2.83;1.45;;;;;;;;;;5053534;28;20367;-57
2024/03/10 02:48:55;;;;;;;2.60;1.70;;;;;;;;;;5056468;28;20457;-57
2024/03/10 02:51:21;;;;;;;2.97;1.95;;;;;;;;;;5055911;28;20017;-58
2024/03/10 02:53:47;;;;;;;2.28;1.35;;;;;;;;;;5056175;28;20390;-56
2024/03/10 02:56:13;;;;;;;3.40;1.77;;;;;;;;;;5055770;28;20560;-57
2024/03/10 02:58:40;;;;;;;2.70;1.35;;;;;;;;;;5056325;28;20068;-57
2024/03/10 03:01:07;;;;;;;2.47;1.58;;;;;;;;;;5056007;28;20056;-58
2024/03/10 03:03:34;;;;;;;2.80;1.60;;;;;;;;;;5056736;28;20033;-58
2024/03/10 03:06:00;;;;;;;3.28;1.50;;;;;;;;;;5056417;28;20035;-57
2024/03/10 03:08:26;;;;;;;2.30;1.40;;;;;;;;;;5056631;28;20455;-58
2024/03/10 03:10:52;;;;;;;3.03;1.77;;;;;;;;;;5056446;28;20037;-57
2024/03/10 03:13:18;;;;;;;3.85;1.65;;;;;;;;;;5055562;28;20025;-57
2024/03/10 03:15:44;;;;;;;2.88;1.83;;;;;;;;;;5055815;28;20104;-57
2024/03/10 03:18:10;;;;;;;2.90;1.52;;;;;;;;;;5055727;28;20063;-57
2024/03/10 03:20:36;;;;;;;2.80;1.38;;;;;;;;;;5055595;28;20036;-57
2024/03/10 03:23:04;;;;;;;2.00;1.10;;;;;;;;;;5055692;28;20319;-57
2024/03/10 03:25:30;;;;;;;2.33;1.45;;;;;;;;;;5055514;28;20032;-57
2024/03/10 03:27:56;;;;;;;2.30;1.05;;;;;;;;;;5056040;28;20371;-58
2024/03/10 03:30:22;;;;;;;3.75;1.67;;;;;;;;;;5055872;28;20028;-57
2024/03/10 03:32:48;;;;;;;2.10;1.30;;;;;;;;;;5055454;28;20374;-56
2024/03/10 03:35:17;;;;;;;2.10;1.20;;;;;;;;;;5055416;28;20032;-57
2024/03/10 03:37:45;;;;;;;2.40;1.35;;;;;;;;;;5056151;28;20025;-57
2024/03/10 03:40:14;;;;;;;2.30;0.98;;;;;;;;;;5055913;28;20072;-57
2024/03/10 03:42:40;;;;;;;2.65;1.63;;;;;;;;;;5055579;28;20082;-58
2024/03/10 03:45:07;;;;;;;2.92;1.20;;;;;;;;;;5055167;28;20033;-57
2024/03/10 03:47:34;;;;;;;2.13;1.35;;;;;;;;;;5054874;28;20116;-57
2024/03/10 03:50:00;;;;;;;1.92;1.08;;;;;;;;;;5055852;28;20029;-57
2024/03/10 03:52:25;;;;;;;1.80;1.10;;;;;;;;;;5055838;28;20087;-58
2024/03/10 03:54:52;;;;;;;3.53;1.85;;;;;;;;;;5054953;28;20509;-56
2024/03/10 03:57:19;;;;;;;2.92;1.50;;;;;;;;;;5054962;28;20054;-58
2024/03/10 03:59:45;;;;;;;2.30;1.38;;;;;;;;;;5055668;28;20098;-58
2024/03/10 04:02:11;;;;;;;2.97;1.75;;;;;;;;;;5055469;28;20021;-58
2024/03/10 04:04:38;;;;;;;2.30;1.40;;;;;;;;;;5055320;28;20469;-58
2024/03/10 04:07:04;;;;;;;2.92;1.25;;;;;;;;;;5054759;28;20036;-58
2024/03/10 04:09:30;;;;;;;4.50;1.58;;;;;;;;;;5055243;28;20037;-57
2024/03/10 04:11:56;;;;;;;2.88;1.58;;;;;;;;;;5054586;28;20041;-57
2024/03/10 04:14:23;;;;;;;2.55;1.50;;;;;;;;;;5054352;28;20024;-58
2024/03/10 04:16:50;;;;;;;2.60;1.30;;;;;;;;;;5054586;28;20029;-58
2024/03/10 04:19:16;;;;;;;3.20;1.50;;;;;;;;;;5055043;28;20036;-58
2024/03/10 04:21:42;;;;;;;3.10;1.50;;;;;;;;;;5054499;28;20056;-58
2024/03/10 04:24:10;;;;;;;3.70;2.00;;;;;;;;;;5054700;28;20024;-59
2024/03/10 04:26:36;;;;;;;2.78;1.67;;;;;;;;;;5054910;28;20443;-58
2024/03/10 04:29:02;;;;;;;2.28;1.25;;;;;;;;;;5054921;28;20087;-57
2024/03/10 04:31:28;;;;;;;2.38;1.55;;;;;;;;;;5054219;28;20032;-55
2024/03/10 04:33:54;;;;;;;2.50;1.10;;;;;;;;;;5054227;28;20025;-57
2024/03/10 04:36:20;;;;;;;2.05;1.10;;;;;;;;;;5054779;28;20036;-57
2024/03/10 04:38:46;;;;;;;2.20;1.10;;;;;;;;;;5054009;28;20120;-57
2024/03/10 04:41:12;;;;;;;2.97;1.50;;;;;;;;;;5054737;28;20028;-57
2024/03/10 04:43:38;;;;;;;2.03;1.08;;;;;;;;;;5054161;28;20036;-57
2024/03/10 04:46:05;;;;;;;2.95;1.58;;;;;;;;;;5054092;28;20033;-57
2024/03/10 04:48:31;;;;;;;2.67;1.23;;;;;;;;;;5054901;28;20029;-57
2024/03/10 04:50:57;;;;;;;3.72;1.25;;;;;;;;;;5054055;28;20375;-57
2024/03/10 04:53:23;;;;;;;2.83;1.77;;;;;;;;;;5054009;28;20021;-57
2024/03/10 04:55:49;;;;;;;4.45;1.08;;;;;;;;;;5053786;28;20103;-57
2024/03/10 04:58:15;;;;;;;2.05;1.10;;;;;;;;;;5054399;28;20108;-57
2024/03/10 05:00:42;;;;;;;1.55;0.82;;;;;;;;;;5053251;28;20029;-57
2024/03/10 05:03:10;;;;;;;3.08;1.50;;;;;;;;;;5054399;28;20455;-57
2024/03/10 05:05:36;;;;;;;2.78;1.23;;;;;;;;;;5053819;28;20036;-58
2024/03/10 05:08:02;;;;;;;1.88;1.23;;;;;;;;;;5054299;28;20353;-57
2024/03/10 05:10:28;;;;;;;2.22;1.08;;;;;;;;;;5053766;28;20029;-57
2024/03/10 05:12:54;;;;;;;3.28;1.30;;;;;;;;;;5053708;28;20466;-57
2024/03/10 05:15:20;;;;;;;1.85;1.02;;;;;;;;;;5053716;28;20055;-57
2024/03/10 05:17:46;;;;;;;2.47;1.17;;;;;;;;;;5054455;28;20029;-58
2024/03/10 05:20:14;;;;;;;2.40;1.10;;;;;;;;;;5053649;28;20025;-58
2024/03/10 05:22:40;;;;;;;2.38;1.30;;;;;;;;;;5053403;28;20033;-58
2024/03/10 05:25:08;;;;;;;2.22;1.20;;;;;;;;;;5053298;28;20494;-57
2024/03/10 05:27:35;;;;;;;2.10;1.20;;;;;;;;;;5054410;28;20424;-57
2024/03/10 05:30:02;;;;;;;1.55;0.98;;;;;;;;;;5054324;28;20064;-58
2024/03/10 05:32:28;;;;;;;2.78;1.15;;;;;;;;;;5053734;28;20032;-57
2024/03/10 05:34:56;;;;;;;1.88;1.00;;;;;;;;;;5053448;28;20199;-57
2024/03/10 05:37:22;;;;;;;2.58;1.42;;;;;;;;;;5053950;28;20406;-57
2024/03/10 05:39:48;;;;;;;2.28;1.23;;;;;;;;;;5054018;28;20067;-58
2024/03/10 05:42:14;;;;;;;2.72;1.25;;;;;;;;;;5053955;28;20413;-58
2024/03/10 05:44:40;;;;;;;2.50;1.20;;;;;;;;;;5053599;28;20413;-57
2024/03/10 05:47:07;;;;;;;2.42;1.23;;;;;;;;;;5053368;28;20021;-58
2024/03/10 05:49:33;;;;;;;1.60;1.08;;;;;;;;;;5053368;28;20127;-58
2024/03/10 05:51:59;;;;;;;2.05;1.15;;;;;;;;;;5053301;28;20029;-58
2024/03/10 05:54:25;;;;;;;2.45;1.45;;;;;;;;;;5053350;28;20433;-58
2024/03/10 05:56:51;;;;;;;2.67;1.27;;;;;;;;;;5053175;28;20128;-58
2024/03/10 05:59:16;;;;;;;2.42;0.93;;;;;;;;;;5053762;28;20110;-57
2024/03/10 06:01:45;;;;;;;2.38;1.10;;;;;;;;;;5053184;28;20033;-57
2024/03/10 06:04:11;;;;;;;2.20;1.10;;;;;;;;;;5053814;28;20068;-57
2024/03/10 06:06:38;;;;;;;2.75;1.30;;;;;;;;;;5053449;28;20095;-58
2024/03/10 06:09:05;;;;;;;1.58;0.90;;;;;;;;;;5053763;28;20056;-60
2024/03/10 06:11:31;;;;;;;3.33;1.35;;;;;;;;;;5055689;28;20025;-57
2024/03/10 06:13:57;;;;;;;2.88;1.20;;;;;;;;;;5057047;28;20029;-58
2024/03/10 06:16:23;;;;;;;1.92;1.10;;;;;;;;;;5056770;28;20463;-56
2024/03/10 06:26:52;;;;;;;2.63;1.80;;;;;;;;;;5056884;28;20031;-56
2024/03/10 06:29:19;;;;;;;2.20;1.17;;;;;;;;;;5057835;28;20120;-58
2024/03/10 06:31:45;;;;;;;1.67;1.05;;;;;;;;;;5057422;28;20029;-57
2024/03/10 06:34:11;;;;;;;2.40;1.38;;;;;;;;;;5057215;28;20063;-58
2024/03/10 06:36:38;;;;;;;2.35;1.10;;;;;;;;;;5057119;28;20060;-57
2024/03/10 06:39:05;;;;;;;2.20;0.73;;;;;;;;;;5056491;28;20528;-56
2024/03/10 06:41:31;;;;;;;2.45;1.23;;;;;;;;;;5057062;28;20057;-57
2024/03/10 06:43:57;;;;;;;2.10;1.10;;;;;;;;;;5056434;28;20057;-57
2024/03/10 06:46:22;;;;;;;1.77;1.08;;;;;;;;;;5056130;28;20024;-56
2024/03/10 06:48:48;;;;;;;7.82;1.80;;;;;;;;;;5057141;28;20033;-57
2024/03/10 06:51:14;;;;;;;2.70;1.35;;;;;;;;;;5056379;28;20079;-58
2024/03/10 06:53:42;;;;;;;2.03;1.13;;;;;;;;;;5057033;28;20025;-58
2024/03/10 06:56:09;;;;;;;4.07;1.65;;;;;;;;;;5055818;28;20084;-58
2024/03/10 06:58:35;;;;;;;3.05;1.58;;;;;;;;;;5057491;28;20064;-59
2024/03/10 07:01:07;;;;;;;2.13;1.33;;;;;;;;;;5056906;28;20021;-58
2024/03/10 07:03:35;;;;;;;2.25;1.17;;;;;;;;;;5056124;28;20032;-57
2024/03/10 07:06:01;;;;;;;1.80;1.00;;;;;;;;;;5056045;28;20029;-58
2024/03/10 07:08:27;;;;;;;3.05;0.88;;;;;;;;;;5056508;28;20044;-58
2024/03/10 07:10:54;;;;;;;1.50;0.88;;;;;;;;;;5055901;28;20035;-58
2024/03/10 07:13:20;;;;;;;2.03;1.00;;;;;;;;;;5056698;28;20017;-58
2024/03/10 07:15:46;;;;;;;2.67;1.38;;;;;;;;;;5055887;28;20029;-57
2024/03/10 07:18:12;;;;;;;2.70;1.80;;;;;;;;;;5056407;28;20049;-57
2024/03/10 07:20:39;;;;;;;2.05;1.08;;;;;;;;;;5056338;28;20052;-57
2024/03/10 07:23:05;;;;;;;2.25;1.27;;;;;;;;;;5054785;28;20079;-58
2024/03/10 07:25:31;;;;;;;2.40;1.20;;;;;;;;;;5055592;28;20025;-57
2024/03/10 07:27:57;;;;;;;2.67;1.25;;;;;;;;;;5056087;28;20025;-57
2024/03/10 07:30:23;;;;;;;1.65;1.02;;;;;;;;;;5055427;28;20110;-57
2024/03/10 07:32:49;;;;;;;2.22;1.30;;;;;;;;;;5056019;28;20062;-57
2024/03/10 07:35:16;;;;;;;2.53;1.40;;;;;;;;;;5055972;28;20025;-57
2024/03/10 07:37:43;;;;;;;2.22;1.27;;;;;;;;;;5056248;28;20414;-57
2024/03/10 07:40:19;;;;;;;1.90;1.33;;;;;;;;;;5055956;28;20040;-57
2024/03/10 07:42:45;;;;;;;2.45;1.10;;;;;;;;;;5056214;28;20027;-57
2024/03/10 07:45:11;;;;;;;4.28;1.38;;;;;;;;;;5055775;28;20025;-57
2024/03/10 07:47:47;;;;;;;1.60;1.13;;;;;;;;;;5055782;28;20098;-57
2024/03/10 07:50:14;;;;;;;3.08;1.38;;;;;;;;;;5055700;28;20063;-57
2024/03/10 07:52:40;;;;;;;2.15;1.25;;;;;;;;;;5055481;28;20025;-57
2024/03/10 07:55:07;;;;;;;2.15;1.10;;;;;;;;;;5055069;28;20163;-57
2024/03/10 07:57:33;;;;;;;2.92;1.65;;;;;;;;;;5054860;28;20048;-57
2024/03/10 08:00:05;;;;;;;2.38;1.48;;;;;;;;;;5055256;28;20029;-57
2024/03/10 08:02:31;;;;;;;1.67;0.90;;;;;;;;;;5055549;28;20061;-58
2024/03/10 08:04:57;;;;;;;1.77;1.00;;;;;;;;;;5055440;28;20112;-58
2024/03/10 08:07:23;;;;;;;2.13;1.25;;;;;;;;;;5055191;28;20533;-57
2024/03/10 08:09:49;;;;;;;2.33;1.17;;;;;;;;;;5055366;28;20033;-58
2024/03/10 08:12:15;;;;;;;2.03;1.40;;;;;;;;;;5054749;28;20386;-58
2024/03/10 08:14:41;;;;;;;2.67;1.30;;;;;;;;;;5054621;28;20148;-58
2024/03/10 08:17:07;;;;;;;2.30;1.42;;;;;;;;;;5054649;28;20024;-58
2024/03/10 08:19:33;;;;;;;2.05;1.10;;;;;;;;;;5055172;28;20498;-58
2024/03/10 08:21:59;;;;;;;1.52;0.70;;;;;;;;;;5054591;28;20040;-58
2024/03/10 08:24:28;;;;;;;2.97;1.02;;;;;;;;;;5054897;28;20068;-58
2024/03/10 08:26:54;;;;;;;2.30;1.25;;;;;;;;;;5054685;28;20352;-57
2024/03/10 08:29:20;;;;;;;1.80;1.08;;;;;;;;;;5054940;28;20078;-58
2024/03/10 08:31:46;;;;;;;2.50;1.33;;;;;;;;;;5053879;28;20412;-58
2024/03/10 08:34:12;;;;;;;2.00;0.90;;;;;;;;;;5054561;28;20051;-57
2024/03/10 08:36:39;;;;;;;2.10;0.98;;;;;;;;;;5054368;28;20025;-58
2024/03/10 08:39:07;;;;;;;2.10;1.00;;;;;;;;;;5054773;28;20047;-58
2024/03/10 08:41:34;;;;;;;1.38;0.75;;;;;;;;;;5054445;28;20029;-58
2024/03/10 08:44:01;;;;;;;1.10;0.68;;;;;;;;;;5054367;28;20112;-57
2024/03/10 08:46:27;;;;;;;1.70;0.90;;;;;;;;;;5054652;28;20071;-57
2024/03/10 08:48:53;;;;;;;2.03;0.90;;;;;;;;;;5054138;28;20064;-58
2024/03/10 08:51:19;;;;;;;1.73;0.85;;;;;;;;;;5054121;28;20421;-55
2024/03/10 08:53:45;;;;;;;2.05;1.15;;;;;;;;;;5054008;28;20068;-58
2024/03/10 08:56:14;;;;;;;2.22;1.30;;;;;;;;;;5053872;28;20055;-57
2024/03/10 08:58:41;;;;;;;2.00;1.15;;;;;;;;;;5054330;28;20033;-58
2024/03/10 09:01:07;;;;;;;2.55;1.10;;;;;;;;;;5054446;28;20028;-58
2024/03/10 09:03:34;;;;;;;1.60;1.02;;;;;;;;;;5053624;28;20585;-58
2024/03/10 09:06:00;;;;;;;1.70;0.77;;;;;;;;;;5054346;28;20040;-58
2024/03/10 09:08:26;;;;;;;2.40;0.93;;;;;;;;;;5054600;28;20163;-58
2024/03/10 09:10:55;;;;;;;1.63;0.80;;;;;;;;;;5053566;28;20029;-58
2024/03/10 09:13:21;;;;;;;3.65;1.13;;;;;;;;;;5053739;28;20036;-58
2024/03/10 09:15:47;;;;;;;1.70;0.90;;;;;;;;;;5053446;28;20021;-58
2024/03/10 09:18:13;;;;;;;2.00;0.70;;;;;;;;;;5054020;28;20029;-58
2024/03/10 09:20:39;;;;;;;1.45;0.90;;;;;;;;;;5053732;28;20021;-58
2024/03/10 09:23:05;;;;;;;2.72;1.00;;;;;;;;;;5053625;28;20025;-58
2024/03/10 09:25:31;;;;;;;2.08;1.00;;;;;;;;;;5053973;28;20024;-57
2024/03/10 09:27:59;;;;;;;2.05;1.00;;;;;;;;;;5053745;28;20596;-57
2024/03/10 09:30:30;;;;;;;2.15;1.13;;;;;;;;;;5053149;28;20116;-57
2024/03/10 09:32:56;;;;;;;2.30;1.20;;;;;;;;;;5053947;28;20037;-58
2024/03/10 09:35:27;;;;;;;2.25;0.68;;;;;;;;;;5053985;28;20117;-59
2024/03/10 09:37:53;;;;;;;2.13;1.08;;;;;;;;;;5053617;28;20021;-58
2024/03/10 09:40:25;;;;;;;1.65;0.95;;;;;;;;;;5053272;28;20159;-58
2024/03/10 09:42:51;;;;;;;1.40;0.75;;;;;;;;;;5053994;28;20028;-58
2024/03/10 09:45:21;;;;;;;1.05;0.50;;;;;;;;;;5054097;28;20371;-59
2024/03/10 09:47:50;;;;;;;1.70;0.50;;;;;;;;;;5058187;28;20106;-59
2024/03/10 09:50:23;;;;;;;2.45;1.08;;;;;;;;;;5057240;28;20090;-59
2024/03/10 09:53:01;;;;;;;2.17;1.02;;;;;;;;;;5057506;28;20029;-59
2024/03/10 09:55:27;;;;;;;2.28;1.13;;;;;;;;;;5057523;28;20108;-58
2024/03/10 09:57:54;;;;;;;2.28;1.20;;;;;;;;;;5057264;28;20455;-59
2024/03/10 10:00:23;;;;;;;2.53;0.98;;;;;;;;;;5057062;28;20063;-59
2024/03/10 10:02:51;;;;;;;2.58;1.42;;;;;;;;;;5057557;28;20383;-58
2024/03/10 10:05:32;;;;;;;2.33;1.20;;;;;;;;;;5057102;28;20033;-58
2024/03/10 10:07:59;;;;;;;3.00;1.45;;;;;;;;;;5057443;28;20074;-59
2024/03/10 10:10:26;;;;;;;1.63;0.80;;;;;;;;;;5056878;28;20093;-57
2024/03/10 10:12:53;;;;;;;5.38;1.17;;;;;;;;;;5057244;28;20085;-57
2024/03/10 10:15:26;;;;;;;2.47;0.90;;;;;;;;;;5056877;28;20017;-57
2024/03/10 10:17:56;;;;;;;2.47;0.93;;;;;;;;;;5057469;28;20029;-58
2024/03/10 10:20:25;;;;;;;1.73;1.10;;;;;;;;;;5056987;28;20033;-58
2024/03/10 10:22:54;;;;;;;2.50;1.33;;;;;;;;;;5057018;28;20518;-57
2024/03/10 10:25:22;;;;;;;2.85;1.48;;;;;;;;;;5057043;28;20490;-58
2024/03/10 10:27:51;;;;;;;2.75;1.58;;;;;;;;;;5057275;28;20021;-58
2024/03/10 10:30:22;;;;;;;2.47;1.30;;;;;;;;;;5056518;28;20025;-54
2024/03/10 10:32:48;;;;;;;3.20;1.27;;;;;;;;;;5056560;28;20028;-55
2024/03/10 10:35:16;;;;;;;3.38;1.85;;;;;;;;;;5056886;28;20045;-59
2024/03/10 10:37:44;;;;;;;2.25;1.30;;;;;;;;;;5056548;28;20379;-57
2024/03/10 10:40:11;;;;;;;2.10;1.27;;;;;;;;;;5057130;28;20052;-58
2024/03/10 10:42:37;;;;;;;3.05;1.20;;;;;;;;;;5057184;28;20052;-57
2024/03/10 10:45:04;;;;;;;2.45;1.45;;;;;;;;;;5056354;28;20025;-58
2024/03/10 10:47:31;;;;;;;1.95;1.13;;;;;;;;;;5056302;28;20013;-59
2024/03/10 10:49:57;;;;;;;3.75;1.48;;;;;;;;;;5056109;28;20029;-57
2024/03/10 10:52:23;;;;;;;3.20;1.45;;;;;;;;;;5056233;28;20021;-57
2024/03/10 10:54:49;;;;;;;2.75;1.27;;;;;;;;;;5055876;28;20411;-57
2024/03/10 10:57:15;;;;;;;1.55;0.95;;;;;;;;;;5054838;28;20139;-58
2024/03/10 10:59:47;;;;;;;6.45;1.40;;;;;;;;;;5056660;28;20075;-60
2024/03/10 11:02:19;;;;;;;2.05;1.05;;;;;;;;;;5056901;28;20025;-56
2024/03/10 11:04:46;;;;;;;2.58;1.00;;;;;;;;;;5056052;28;20043;-53
2024/03/10 11:07:13;;;;;;;2.55;1.38;;;;;;;;;;5055978;28;20033;-57
2024/03/10 11:09:39;;;;;;;2.10;1.15;;;;;;;;;;5056451;28;20033;-58
2024/03/10 11:12:32;;;;;;;3.33;1.50;;;;;;;;;;5056473;28;20604;-57
2024/03/10 11:14:58;;;;;;;1.95;1.17;;;;;;;;;;5054874;28;20052;-58
2024/03/10 11:17:29;;;;;;;3.88;1.60;;;;;;;;;;5055550;28;20490;-58
2024/03/10 11:19:56;;;;;;;4.15;1.88;;;;;;;;;;5055650;28;20078;-58
2024/03/10 11:22:27;;;;;;;1.70;0.90;;;;;;;;;;5056229;28;20025;-58
2024/03/10 11:25:16;;;;;;;2.35;1.48;;;;;;;;;;5055875;28;20033;-58
2024/03/10 11:27:42;;;;;;;2.42;1.27;;;;;;;;;;5056018;28;20108;-56
2024/03/10 11:30:27;;;;;;;2.63;1.55;;;;;;;;;;5056224;28;20068;-57
2024/03/10 11:33:04;;;;;;;2.28;1.38;;;;;;;;;;5055958;28;20029;-56
2024/03/10 11:35:31;;;;;;;2.22;1.30;;;;;;;;;;5055447;28;20115;-57
2024/03/10 11:38:00;;;;;;;2.90;1.60;;;;;;;;;;5055593;28;20055;-56
2024/03/10 11:40:30;;;;;;;1.77;1.00;;;;;;;;;;5055431;28;20166;-56
2024/03/10 11:42:58;;;;;;;2.42;1.30;;;;;;;;;;5055388;28;20033;-56
2024/03/10 11:45:25;;;;;;;3.95;1.20;;;;;;;;;;5056101;28;20028;-57
2024/03/10 11:47:51;;;;;;;1.55;0.80;;;;;;;;;;5055293;28;20021;-55
2024/03/10 11:50:18;;;;;;;2.15;0.90;;;;;;;;;;5055406;28;20116;-56
2024/03/10 11:52:45;;;;;;;3.10;1.45;;;;;;;;;;5055524;28;20375;-57
2024/03/10 11:55:13;;;;;;;3.35;1.52;;;;;;;;;;5055663;28;20036;-55
2024/03/10 11:57:40;;;;;;;2.13;1.20;;;;;;;;;;5055134;28;20478;-57
2024/03/10 12:00:07;;;;;;;2.42;1.33;;;;;;;;;;5055527;28;20466;-57
2024/03/10 12:02:33;;;;;;;1.60;1.00;;;;;;;;;;5055235;28;20486;-56
2024/03/10 12:05:00;;;;;;;1.77;1.08;;;;;;;;;;5054875;28;20025;-54
2024/03/10 12:07:26;;;;;;;3.25;1.50;;;;;;;;;;5054699;28;20483;-57
2024/03/10 12:09:55;;;;;;;1.88;1.20;;;;;;;;;;5054925;28;20414;-56
2024/03/10 12:12:30;;;;;;;2.90;1.10;;;;;;;;;;5055270;28;20029;-57
2024/03/10 12:14:56;;;;;;;2.92;1.27;;;;;;;;;;5054719;28;20033;-57
2024/03/10 12:17:22;;;;;;;1.85;1.08;;;;;;;;;;5055218;28;20025;-56
2024/03/10 12:19:48;;;;;;;3.42;1.48;;;;;;;;;;5055243;28;20482;-57
2024/03/10 12:22:15;;;;;;;3.63;1.52;;;;;;;;;;5054653;28;20383;-57
2024/03/10 12:24:41;;;;;;;3.88;1.88;;;;;;;;;;5055309;28;20040;-58
2024/03/10 12:27:09;;;;;;;2.22;1.25;;;;;;;;;;5054730;28;20344;-57
2024/03/10 12:29:45;;;;;;;2.50;1.55;;;;;;;;;;5054543;28;20052;-57
2024/03/10 12:32:11;;;;;;;3.75;1.63;;;;;;;;;;5054082;28;20528;-57
2024/03/10 12:34:37;;;;;;;3.03;1.73;;;;;;;;;;5054435;28;20021;-57
2024/03/10 12:37:04;;;;;;;3.13;1.63;;;;;;;;;;5054902;28;20033;-57
2024/03/10 12:39:30;;;;;;;2.67;1.80;;;;;;;;;;5054945;28;20387;-57
2024/03/10 12:41:56;;;;;;;2.67;1.55;;;;;;;;;;5053951;28;20466;-58
2024/03/10 12:44:22;;;;;;;2.72;1.60;;;;;;;;;;5054822;28;20025;-58
2024/03/10 12:46:48;;;;;;;2.45;1.40;;;;;;;;;;5054249;28;20035;-56
2024/03/10 12:49:14;;;;;;;2.17;1.35;;;;;;;;;;5053840;28;20486;-58
2024/03/10 12:51:40;;;;;;;2.42;1.23;;;;;;;;;;5054705;28;20037;-55
2024/03/10 12:54:06;;;;;;;5.72;1.73;;;;;;;;;;5054086;28;20116;-56
2024/03/10 12:56:32;;;;;;;3.13;1.83;;;;;;;;;;5053989;28;20110;-53
2024/03/10 12:58:58;;;;;;;3.13;1.75;;;;;;;;;;5053956;28;20033;-57
2024/03/10 13:01:24;;;;;;;2.67;1.65;;;;;;;;;;5054075;28;20029;-56
2024/03/10 13:04:08;;;;;;;3.42;2.08;;;;;;;;;;5053977;28;20021;-57
2024/03/10 13:06:34;;;;;;;2.17;1.35;;;;;;;;;;5054138;28;20025;-54
2024/03/10 13:09:00;;;;;;;2.63;1.70;;;;;;;;;;5054301;28;20040;-55
2024/03/10 13:11:26;;;;;;;2.00;1.20;;;;;;;;;;5053875;28;20021;-56
2024/03/10 13:13:53;;;;;;;3.28;1.65;;;;;;;;;;5053561;28;20031;-57
2024/03/10 13:16:19;;;;;;;2.47;1.58;;;;;;;;;;5054644;28;20096;-57
2024/03/10 13:18:46;;;;;;;2.50;1.50;;;;;;;;;;5054354;28;20032;-56
2024/03/10 13:21:12;;;;;;;3.13;1.58;;;;;;;;;;5053083;28;20387;-56
2024/03/10 13:23:39;;;;;;;2.85;1.60;;;;;;;;;;5053843;28;20463;-56
2024/03/10 13:26:05;;;;;;;2.47;1.23;;;;;;;;;;5053634;28;20064;-57
2024/03/10 13:28:31;;;;;;;5.55;2.25;;;;;;;;;;5054113;28;20025;-56
2024/03/10 13:30:57;;;;;;;3.03;2.10;;;;;;;;;;5053619;28;20112;-57
2024/03/10 13:33:23;;;;;;;3.60;1.98;;;;;;;;;;5053637;28;20352;-56
2024/03/10 13:35:51;;;;;;;2.67;2.05;;;;;;;;;;5053821;28;20032;-57
2024/03/10 13:38:17;;;;;;;2.78;1.60;;;;;;;;;;5053551;28;20029;-57
2024/03/10 13:40:43;;;;;;;3.22;1.77;;;;;;;;;;5053413;28;20083;-58
2024/03/10 13:43:12;;;;;;;3.22;1.60;;;;;;;;;;5053512;28;20035;-56
2024/03/10 13:45:40;;;;;;;3.17;1.75;;;;;;;;;;5053507;28;20060;-55
2024/03/10 13:48:07;;;;;;;2.58;1.70;;;;;;;;;;5053992;28;20359;-58
2024/03/10 13:50:34;;;;;;;3.47;2.15;;;;;;;;;;5053333;28;20033;-54
2024/03/10 13:53:00;;;;;;;2.75;2.03;;;;;;;;;;5053421;28;20029;-55
2024/03/10 13:55:26;;;;;;;3.33;1.90;;;;;;;;;;5053579;28;20156;-57
2024/03/10 13:57:53;;;;;;;4.80;2.17;;;;;;;;;;5053952;28;20041;-58
2024/03/10 14:00:19;;;;;;;3.00;2.20;;;;;;;;;;5053950;28;20055;-57
2024/03/10 14:02:48;;;;;;;3.17;2.13;;;;;;;;;;5052708;28;20471;-57
2024/03/10 14:05:14;;;;;;;3.50;2.53;;;;;;;;;;5053006;28;20124;-55
2024/03/10 14:07:44;;;;;;;3.35;2.40;;;;;;;;;;5053125;28;20167;-58
2024/03/10 14:10:10;;;;;;;2.90;2.00;;;;;;;;;;5053902;28;20086;-58
2024/03/10 14:12:38;;;;;;;3.28;2.17;;;;;;;;;;5054127;28;20052;-57
2024/03/10 14:15:09;;;;;;;3.05;2.20;;;;;;;;;;5053593;28;20017;-57
2024/03/10 14:17:35;;;;;;;5.95;2.50;;;;;;;;;;5053223;28;20029;-56
2024/03/10 14:20:01;;;;;;;4.93;2.95;;;;;;;;;;5053959;28;20025;-58
2024/03/10 14:22:28;;;;;;;5.30;2.40;;;;;;;;;;5053695;28;20025;-57
2024/03/10 14:24:55;;;;;;;4.75;2.15;;;;;;;;;;5053333;28;20029;-57
2024/03/10 14:27:22;;;;;;;3.35;2.70;;;;;;;;;;5052822;28;20443;-58
2024/03/10 14:29:48;;;;;;;3.67;2.33;;;;;;;;;;5053372;28;20025;-57
2024/03/10 14:32:15;;;;;;;2.90;2.08;;;;;;;;;;5055060;28;20021;-57
2024/03/10 14:34:41;;;;;;;2.92;2.30;;;;;;;;;;5057205;28;20018;-57
2024/03/10 14:37:08;;;;;;;3.88;2.25;;;;;;;;;;5056391;28;20502;-58
2024/03/10 14:39:35;;;;;;;3.63;2.20;;;;;;;;;;5057414;28;20067;-58
2024/03/10 14:42:01;;;;;;;4.60;2.13;;;;;;;;;;5056278;28;20475;-58
2024/03/10 14:44:27;;;;;;;3.03;1.77;;;;;;;;;;5056247;28;20504;-56
2024/03/10 14:46:53;;;;;;;3.75;2.15;;;;;;;;;;5056522;28;20021;-57
2024/03/10 14:49:19;;;;;;;3.30;2.03;;;;;;;;;;5056794;28;20029;-58
2024/03/10 14:51:45;;;;;;;4.65;2.30;;;;;;;;;;5056333;28;20360;-58
2024/03/10 14:54:12;;;;;;;3.72;2.72;;;;;;;;;;5056117;28;20075;-59
2024/03/10 14:56:38;;;;;;;3.53;2.55;;;;;;;;;;5056292;28;20053;-58
2024/03/10 14:59:06;;;;;;;3.38;2.38;;;;;;;;;;5057040;28;20414;-58
2024/03/10 15:01:32;;;;;;;3.88;2.83;;;;;;;;;;5056645;28;20071;-59
2024/03/10 15:03:58;;;;;;;4.32;3.42;;;;;;;;;;5055975;28;20025;-58
2024/03/10 15:06:25;;;;;;;7.20;3.92;;;;;;;;;;5055983;28;20029;-59
2024/03/10 15:08:53;;;;;;;6.15;3.90;;;;;;;;;;5056418;28;20037;-57